sensor_id;sensor_type;location;lat;lon;timestamp;P1;durP1;ratioP1;P2;durP2;ratioP2
5961;SDS011;3007;50.770;0.250;2024-03-06T00:01:32;19.90;;;16.77;;
5961;SDS011;3007;50.770;0.250;2024-03-06T00:03:59;22.20;;;17.67;;
5961;SDS011;3007;50.770;0.250;2024-03-06T00:06:26;24.30;;;18.60;;
5961;SDS011;3007;50.770;0.250;2024-03-06T00:08:52;19.97;;;16.20;;
5961;SDS011;3007;50.770;0.250;2024-03-06T00:11:20;21.73;;;18.23;;
5961;SDS011;3007;50.770;0.250;2024-03-06T00:13:47;26.07;;;18.53;;
5961;SDS011;3007;50.770;0.250;2024-03-06T00:16:16;25.40;;;18.33;;
5961;SDS011;3007;50.770;0.250;2024-03-06T00:18:43;23.43;;;17.70;;
5961;SDS011;3007;50.770;0.250;2024-03-06T00:21:10;24.07;;;18.47;;
5961;SDS011;3007;50.770;0.250;2024-03-06T00:23:37;22.47;;;17.80;;
5961;SDS011;3007;50.770;0.250;2024-03-06T00:26:04;20.97;;;17.03;;
5961;SDS011;3007;50.770;0.250;2024-03-06T00:28:32;22.50;;;16.23;;
5961;SDS011;3007;50.770;0.250;2024-03-06T00:30:59;20.50;;;15.87;;
5961;SDS011;3007;50.770;0.250;2024-03-06T00:33:26;21.80;;;14.80;;
5961;SDS011;3007;50.770;0.250;2024-03-06T00:35:52;16.33;;;12.83;;
5961;SDS011;3007;50.770;0.250;2024-03-06T00:38:19;18.10;;;13.60;;
5961;SDS011;3007;50.770;0.250;2024-03-06T00:40:46;15.80;;;13.73;;
5961;SDS011;3007;50.770;0.250;2024-03-06T00:43:13;15.73;;;13.53;;
5961;SDS011;3007;50.770;0.250;2024-03-06T00:45:41;17.23;;;13.60;;
5961;SDS011;3007;50.770;0.250;2024-03-06T00:48:08;17.80;;;14.00;;
5961;SDS011;3007;50.770;0.250;2024-03-06T00:50:35;15.03;;;12.83;;
5961;SDS011;3007;50.770;0.250;2024-03-06T00:53:01;17.90;;;13.50;;
5961;SDS011;3007;50.770;0.250;2024-03-06T00:55:29;15.57;;;12.50;;
5961;SDS011;3007;50.770;0.250;2024-03-06T00:57:56;13.90;;;11.67;;
5961;SDS011;3007;50.770;0.250;2024-03-06T01:00:23;13.77;;;12.37;;
5961;SDS011;3007;50.770;0.250;2024-03-06T01:02:51;14.57;;;13.17;;
5961;SDS011;3007;50.770;0.250;2024-03-06T01:05:18;17.67;;;13.77;;
5961;SDS011;3007;50.770;0.250;2024-03-06T01:07:44;14.77;;;13.23;;
5961;SDS011;3007;50.770;0.250;2024-03-06T01:10:12;14.83;;;13.07;;
5961;SDS011;3007;50.770;0.250;2024-03-06T01:12:39;17.83;;;14.37;;
5961;SDS011;3007;50.770;0.250;2024-03-06T01:15:06;18.03;;;15.20;;
5961;SDS011;3007;50.770;0.250;2024-03-06T01:17:33;15.90;;;13.97;;
5961;SDS011;3007;50.770;0.250;2024-03-06T01:20:02;16.40;;;13.90;;
5961;SDS011;3007;50.770;0.250;2024-03-06T01:22:31;15.53;;;13.93;;
5961;SDS011;3007;50.770;0.250;2024-03-06T01:24:58;16.27;;;14.33;;
5961;SDS011;3007;50.770;0.250;2024-03-06T01:27:25;14.50;;;12.93;;
5961;SDS011;3007;50.770;0.250;2024-03-06T01:29:52;15.23;;;13.47;;
5961;SDS011;3007;50.770;0.250;2024-03-06T01:32:19;16.03;;;13.97;;
5961;SDS011;3007;50.770;0.250;2024-03-06T01:34:45;14.40;;;12.93;;
5961;SDS011;3007;50.770;0.250;2024-03-06T01:37:13;14.67;;;13.07;;
5961;SDS011;3007;50.770;0.250;2024-03-06T01:39:40;18.00;;;14.50;;
5961;SDS011;3007;50.770;0.250;2024-03-06T01:42:07;14.67;;;13.17;;
5961;SDS011;3007;50.770;0.250;2024-03-06T01:44:34;16.30;;;13.97;;
5961;SDS011;3007;50.770;0.250;2024-03-06T01:47:00;16.70;;;13.93;;
5961;SDS011;3007;50.770;0.250;2024-03-06T01:49:27;16.50;;;14.80;;
5961;SDS011;3007;50.770;0.250;2024-03-06T01:51:55;16.87;;;15.07;;
5961;SDS011;3007;50.770;0.250;2024-03-06T01:54:26;18.70;;;15.90;;
5961;SDS011;3007;50.770;0.250;2024-03-06T01:56:53;23.13;;;18.80;;
5961;SDS011;3007;50.770;0.250;2024-03-06T01:59:21;21.70;;;18.40;;
5961;SDS011;3007;50.770;0.250;2024-03-06T02:01:52;22.90;;;18.60;;
5961;SDS011;3007;50.770;0.250;2024-03-06T02:04:20;22.87;;;18.87;;
5961;SDS011;3007;50.770;0.250;2024-03-06T02:06:47;21.13;;;17.87;;
5961;SDS011;3007;50.770;0.250;2024-03-06T02:09:14;25.40;;;20.10;;
5961;SDS011;3007;50.770;0.250;2024-03-06T02:11:43;22.90;;;17.90;;
5961;SDS011;3007;50.770;0.250;2024-03-06T02:14:11;20.93;;;18.33;;
5961;SDS011;3007;50.770;0.250;2024-03-06T02:16:38;22.80;;;17.10;;
5961;SDS011;3007;50.770;0.250;2024-03-06T02:19:05;20.30;;;17.47;;
5961;SDS011;3007;50.770;0.250;2024-03-06T02:21:33;22.67;;;18.37;;
5961;SDS011;3007;50.770;0.250;2024-03-06T02:24:00;25.07;;;20.77;;
5961;SDS011;3007;50.770;0.250;2024-03-06T02:26:27;21.17;;;17.67;;
5961;SDS011;3007;50.770;0.250;2024-03-06T02:28:54;23.53;;;18.33;;
5961;SDS011;3007;50.770;0.250;2024-03-06T02:31:22;24.80;;;19.80;;
5961;SDS011;3007;50.770;0.250;2024-03-06T02:33:49;23.80;;;19.50;;
5961;SDS011;3007;50.770;0.250;2024-03-06T02:36:16;24.40;;;19.83;;
5961;SDS011;3007;50.770;0.250;2024-03-06T02:38:44;30.23;;;22.27;;
5961;SDS011;3007;50.770;0.250;2024-03-06T02:41:12;24.50;;;20.40;;
5961;SDS011;3007;50.770;0.250;2024-03-06T02:43:41;25.83;;;19.60;;
5961;SDS011;3007;50.770;0.250;2024-03-06T02:46:08;28.93;;;21.80;;
5961;SDS011;3007;50.770;0.250;2024-03-06T02:48:35;23.90;;;20.83;;
5961;SDS011;3007;50.770;0.250;2024-03-06T02:51:02;25.00;;;19.73;;
5961;SDS011;3007;50.770;0.250;2024-03-06T02:53:28;27.87;;;20.00;;
5961;SDS011;3007;50.770;0.250;2024-03-06T02:55:57;27.67;;;21.60;;
5961;SDS011;3007;50.770;0.250;2024-03-06T02:58:23;24.37;;;20.37;;
5961;SDS011;3007;50.770;0.250;2024-03-06T03:00:50;25.87;;;20.40;;
5961;SDS011;3007;50.770;0.250;2024-03-06T03:03:17;24.17;;;20.10;;
5961;SDS011;3007;50.770;0.250;2024-03-06T03:05:45;25.00;;;20.97;;
5961;SDS011;3007;50.770;0.250;2024-03-06T03:08:11;24.70;;;19.30;;
5961;SDS011;3007;50.770;0.250;2024-03-06T03:10:38;23.37;;;19.00;;
5961;SDS011;3007;50.770;0.250;2024-03-06T03:13:06;22.97;;;20.07;;
5961;SDS011;3007;50.770;0.250;2024-03-06T03:15:33;23.23;;;19.10;;
5961;SDS011;3007;50.770;0.250;2024-03-06T03:18:00;26.20;;;21.33;;
5961;SDS011;3007;50.770;0.250;2024-03-06T03:20:27;26.50;;;21.73;;
5961;SDS011;3007;50.770;0.250;2024-03-06T03:22:53;30.07;;;22.40;;
5961;SDS011;3007;50.770;0.250;2024-03-06T03:25:20;26.33;;;20.20;;
5961;SDS011;3007;50.770;0.250;2024-03-06T03:27:47;29.03;;;20.80;;
5961;SDS011;3007;50.770;0.250;2024-03-06T03:30:16;24.70;;;19.57;;
5961;SDS011;3007;50.770;0.250;2024-03-06T03:32:46;24.90;;;20.57;;
5961;SDS011;3007;50.770;0.250;2024-03-06T03:35:13;27.90;;;20.60;;
5961;SDS011;3007;50.770;0.250;2024-03-06T03:37:40;28.50;;;20.87;;
5961;SDS011;3007;50.770;0.250;2024-03-06T03:40:08;30.63;;;22.80;;
5961;SDS011;3007;50.770;0.250;2024-03-06T03:42:36;25.57;;;20.67;;
5961;SDS011;3007;50.770;0.250;2024-03-06T03:45:03;31.10;;;20.90;;
5961;SDS011;3007;50.770;0.250;2024-03-06T03:47:32;31.97;;;22.27;;
5961;SDS011;3007;50.770;0.250;2024-03-06T03:49:59;25.20;;;20.77;;
5961;SDS011;3007;50.770;0.250;2024-03-06T03:52:25;33.30;;;23.10;;
5961;SDS011;3007;50.770;0.250;2024-03-06T03:54:52;25.90;;;20.93;;
5961;SDS011;3007;50.770;0.250;2024-03-06T03:57:19;28.83;;;21.10;;
5961;SDS011;3007;50.770;0.250;2024-03-06T03:59:46;26.77;;;20.93;;
5961;SDS011;3007;50.770;0.250;2024-03-06T04:02:12;26.40;;;20.57;;
5961;SDS011;3007;50.770;0.250;2024-03-06T04:04:41;28.47;;;21.13;;
5961;SDS011;3007;50.770;0.250;2024-03-06T04:07:07;23.77;;;19.33;;
5961;SDS011;3007;50.770;0.250;2024-03-06T04:09:34;28.27;;;20.83;;
5961;SDS011;3007;50.770;0.250;2024-03-06T04:12:01;26.67;;;20.60;;
5961;SDS011;3007;50.770;0.250;2024-03-06T04:14:28;26.67;;;20.73;;
5961;SDS011;3007;50.770;0.250;2024-03-06T04:16:55;28.67;;;21.90;;
5961;SDS011;3007;50.770;0.250;2024-03-06T04:19:22;25.23;;;20.13;;
5961;SDS011;3007;50.770;0.250;2024-03-06T04:21:50;28.43;;;22.70;;
5961;SDS011;3007;50.770;0.250;2024-03-06T04:24:17;29.07;;;21.13;;
5961;SDS011;3007;50.770;0.250;2024-03-06T04:26:44;24.87;;;19.03;;
5961;SDS011;3007;50.770;0.250;2024-03-06T04:29:11;27.20;;;20.13;;
5961;SDS011;3007;50.770;0.250;2024-03-06T04:31:38;28.97;;;21.17;;
5961;SDS011;3007;50.770;0.250;2024-03-06T04:34:05;26.17;;;20.77;;
5961;SDS011;3007;50.770;0.250;2024-03-06T04:36:32;24.53;;;19.70;;
5961;SDS011;3007;50.770;0.250;2024-03-06T04:39:00;25.97;;;21.40;;
5961;SDS011;3007;50.770;0.250;2024-03-06T04:41:30;30.00;;;21.07;;
5961;SDS011;3007;50.770;0.250;2024-03-06T04:43:57;27.53;;;20.73;;
5961;SDS011;3007;50.770;0.250;2024-03-06T04:46:25;24.40;;;18.23;;
5961;SDS011;3007;50.770;0.250;2024-03-06T04:48:52;22.73;;;18.50;;
5961;SDS011;3007;50.770;0.250;2024-03-06T04:51:19;23.57;;;17.70;;
5961;SDS011;3007;50.770;0.250;2024-03-06T04:53:46;24.13;;;17.40;;
5961;SDS011;3007;50.770;0.250;2024-03-06T04:56:15;23.50;;;18.17;;
5961;SDS011;3007;50.770;0.250;2024-03-06T04:58:43;25.60;;;18.83;;
5961;SDS011;3007;50.770;0.250;2024-03-06T05:01:11;29.60;;;21.33;;
5961;SDS011;3007;50.770;0.250;2024-03-06T05:03:38;27.53;;;20.17;;
5961;SDS011;3007;50.770;0.250;2024-03-06T05:06:05;26.17;;;18.40;;
5961;SDS011;3007;50.770;0.250;2024-03-06T05:08:32;30.63;;;21.23;;
5961;SDS011;3007;50.770;0.250;2024-03-06T05:11:00;28.07;;;20.77;;
5961;SDS011;3007;50.770;0.250;2024-03-06T05:13:28;26.77;;;20.33;;
5961;SDS011;3007;50.770;0.250;2024-03-06T05:15:55;27.67;;;19.83;;
5961;SDS011;3007;50.770;0.250;2024-03-06T05:18:22;31.77;;;22.77;;
5961;SDS011;3007;50.770;0.250;2024-03-06T05:20:48;29.60;;;21.00;;
5961;SDS011;3007;50.770;0.250;2024-03-06T05:23:15;26.13;;;19.80;;
5961;SDS011;3007;50.770;0.250;2024-03-06T05:25:42;31.43;;;21.83;;
5961;SDS011;3007;50.770;0.250;2024-03-06T05:28:09;30.90;;;20.87;;
5961;SDS011;3007;50.770;0.250;2024-03-06T05:30:37;29.00;;;19.90;;
5961;SDS011;3007;50.770;0.250;2024-03-06T05:33:04;30.07;;;21.17;;
5961;SDS011;3007;50.770;0.250;2024-03-06T05:35:31;27.90;;;19.70;;
5961;SDS011;3007;50.770;0.250;2024-03-06T05:37:58;27.87;;;20.97;;
5961;SDS011;3007;50.770;0.250;2024-03-06T05:40:24;24.20;;;19.03;;
5961;SDS011;3007;50.770;0.250;2024-03-06T05:42:51;32.13;;;22.30;;
5961;SDS011;3007;50.770;0.250;2024-03-06T05:45:18;35.10;;;23.90;;
5961;SDS011;3007;50.770;0.250;2024-03-06T05:47:46;33.30;;;23.73;;
5961;SDS011;3007;50.770;0.250;2024-03-06T05:50:13;34.07;;;24.73;;
5961;SDS011;3007;50.770;0.250;2024-03-06T05:52:40;31.67;;;22.30;;
5961;SDS011;3007;50.770;0.250;2024-03-06T05:55:07;34.07;;;24.33;;
5961;SDS011;3007;50.770;0.250;2024-03-06T05:57:34;41.20;;;26.93;;
5961;SDS011;3007;50.770;0.250;2024-03-06T06:00:01;32.07;;;22.23;;
5961;SDS011;3007;50.770;0.250;2024-03-06T06:02:29;39.93;;;26.90;;
5961;SDS011;3007;50.770;0.250;2024-03-06T06:04:59;33.30;;;22.90;;
5961;SDS011;3007;50.770;0.250;2024-03-06T06:07:25;31.07;;;23.00;;
5961;SDS011;3007;50.770;0.250;2024-03-06T06:09:52;33.63;;;24.87;;
5961;SDS011;3007;50.770;0.250;2024-03-06T06:12:19;40.13;;;26.70;;
5961;SDS011;3007;50.770;0.250;2024-03-06T06:14:46;42.70;;;29.60;;
5961;SDS011;3007;50.770;0.250;2024-03-06T06:17:13;33.57;;;23.67;;
5961;SDS011;3007;50.770;0.250;2024-03-06T06:19:41;39.97;;;27.43;;
5961;SDS011;3007;50.770;0.250;2024-03-06T06:22:10;37.10;;;26.33;;
5961;SDS011;3007;50.770;0.250;2024-03-06T06:24:37;33.00;;;22.17;;
5961;SDS011;3007;50.770;0.250;2024-03-06T06:27:05;41.80;;;27.57;;
5961;SDS011;3007;50.770;0.250;2024-03-06T06:29:33;39.43;;;24.40;;
5961;SDS011;3007;50.770;0.250;2024-03-06T06:32:00;37.23;;;26.20;;
5961;SDS011;3007;50.770;0.250;2024-03-06T06:34:26;30.20;;;23.20;;
5961;SDS011;3007;50.770;0.250;2024-03-06T06:36:53;34.57;;;25.17;;
5961;SDS011;3007;50.770;0.250;2024-03-06T06:39:21;33.53;;;24.63;;
5961;SDS011;3007;50.770;0.250;2024-03-06T06:41:48;43.67;;;26.33;;
5961;SDS011;3007;50.770;0.250;2024-03-06T06:44:15;38.33;;;26.57;;
5961;SDS011;3007;50.770;0.250;2024-03-06T06:46:42;32.43;;;23.93;;
5961;SDS011;3007;50.770;0.250;2024-03-06T06:49:08;37.63;;;26.90;;
5961;SDS011;3007;50.770;0.250;2024-03-06T06:51:35;37.17;;;25.30;;
5961;SDS011;3007;50.770;0.250;2024-03-06T06:54:01;36.47;;;23.77;;
5961;SDS011;3007;50.770;0.250;2024-03-06T06:56:30;33.63;;;23.80;;
5961;SDS011;3007;50.770;0.250;2024-03-06T06:58:57;34.33;;;23.97;;
5961;SDS011;3007;50.770;0.250;2024-03-06T07:01:24;31.30;;;21.87;;
5961;SDS011;3007;50.770;0.250;2024-03-06T07:03:52;38.03;;;25.67;;
5961;SDS011;3007;50.770;0.250;2024-03-06T07:06:19;32.00;;;23.33;;
5961;SDS011;3007;50.770;0.250;2024-03-06T07:08:46;29.57;;;23.27;;
5961;SDS011;3007;50.770;0.250;2024-03-06T07:11:13;32.87;;;23.50;;
5961;SDS011;3007;50.770;0.250;2024-03-06T07:13:41;30.30;;;22.47;;
5961;SDS011;3007;50.770;0.250;2024-03-06T07:16:08;31.27;;;22.17;;
5961;SDS011;3007;50.770;0.250;2024-03-06T07:18:35;34.87;;;24.40;;
5961;SDS011;3007;50.770;0.250;2024-03-06T07:21:02;33.33;;;22.73;;
5961;SDS011;3007;50.770;0.250;2024-03-06T07:23:28;32.33;;;24.70;;
5961;SDS011;3007;50.770;0.250;2024-03-06T07:25:55;32.53;;;24.17;;
5961;SDS011;3007;50.770;0.250;2024-03-06T07:28:24;31.27;;;23.37;;
5961;SDS011;3007;50.770;0.250;2024-03-06T07:30:52;35.90;;;24.03;;
5961;SDS011;3007;50.770;0.250;2024-03-06T07:33:19;31.53;;;24.60;;
5961;SDS011;3007;50.770;0.250;2024-03-06T07:35:46;34.53;;;25.47;;
5961;SDS011;3007;50.770;0.250;2024-03-06T07:38:13;33.10;;;23.90;;
5961;SDS011;3007;50.770;0.250;2024-03-06T07:40:40;34.50;;;24.80;;
5961;SDS011;3007;50.770;0.250;2024-03-06T07:43:07;31.00;;;24.47;;
5961;SDS011;3007;50.770;0.250;2024-03-06T07:45:34;31.97;;;23.43;;
5961;SDS011;3007;50.770;0.250;2024-03-06T07:48:02;35.30;;;24.30;;
5961;SDS011;3007;50.770;0.250;2024-03-06T07:50:30;38.13;;;26.13;;
5961;SDS011;3007;50.770;0.250;2024-03-06T07:52:56;31.43;;;25.07;;
5961;SDS011;3007;50.770;0.250;2024-03-06T07:55:24;32.10;;;23.73;;
5961;SDS011;3007;50.770;0.250;2024-03-06T07:57:51;34.50;;;24.83;;
5961;SDS011;3007;50.770;0.250;2024-03-06T08:00:19;32.03;;;25.40;;
5961;SDS011;3007;50.770;0.250;2024-03-06T08:02:46;32.23;;;25.27;;
5961;SDS011;3007;50.770;0.250;2024-03-06T08:05:16;28.80;;;23.83;;
5961;SDS011;3007;50.770;0.250;2024-03-06T08:07:43;25.77;;;20.37;;
5961;SDS011;3007;50.770;0.250;2024-03-06T08:10:12;28.43;;;22.20;;
5961;SDS011;3007;50.770;0.250;2024-03-06T08:12:39;28.97;;;23.03;;
5961;SDS011;3007;50.770;0.250;2024-03-06T08:15:07;32.23;;;23.37;;
5961;SDS011;3007;50.770;0.250;2024-03-06T08:17:36;28.77;;;23.07;;
5961;SDS011;3007;50.770;0.250;2024-03-06T08:20:04;29.13;;;23.70;;
5961;SDS011;3007;50.770;0.250;2024-03-06T08:22:34;32.43;;;23.93;;
5961;SDS011;3007;50.770;0.250;2024-03-06T08:25:03;30.13;;;23.83;;
5961;SDS011;3007;50.770;0.250;2024-03-06T08:27:32;28.73;;;23.60;;
5961;SDS011;3007;50.770;0.250;2024-03-06T08:29:59;28.03;;;21.37;;
5961;SDS011;3007;50.770;0.250;2024-03-06T08:32:26;27.20;;;21.70;;
5961;SDS011;3007;50.770;0.250;2024-03-06T08:34:54;29.37;;;23.50;;
5961;SDS011;3007;50.770;0.250;2024-03-06T08:37:20;32.30;;;23.80;;
5961;SDS011;3007;50.770;0.250;2024-03-06T08:39:49;31.53;;;23.97;;
5961;SDS011;3007;50.770;0.250;2024-03-06T08:42:16;30.83;;;24.43;;
5961;SDS011;3007;50.770;0.250;2024-03-06T08:44:43;32.40;;;25.00;;
5961;SDS011;3007;50.770;0.250;2024-03-06T08:47:11;33.40;;;24.73;;
5961;SDS011;3007;50.770;0.250;2024-03-06T08:49:38;28.57;;;23.00;;
5961;SDS011;3007;50.770;0.250;2024-03-06T08:52:07;30.50;;;23.63;;
5961;SDS011;3007;50.770;0.250;2024-03-06T08:54:34;33.07;;;26.10;;
5961;SDS011;3007;50.770;0.250;2024-03-06T08:57:03;28.27;;;23.37;;
5961;SDS011;3007;50.770;0.250;2024-03-06T08:59:31;29.17;;;23.50;;
5961;SDS011;3007;50.770;0.250;2024-03-06T09:01:58;30.60;;;24.63;;
5961;SDS011;3007;50.770;0.250;2024-03-06T09:04:39;32.67;;;24.67;;
5961;SDS011;3007;50.770;0.250;2024-03-06T09:07:06;34.07;;;25.33;;
5961;SDS011;3007;50.770;0.250;2024-03-06T09:09:33;32.53;;;24.67;;
5961;SDS011;3007;50.770;0.250;2024-03-06T09:12:00;36.13;;;26.03;;
5961;SDS011;3007;50.770;0.250;2024-03-06T09:14:30;30.53;;;24.27;;
5961;SDS011;3007;50.770;0.250;2024-03-06T09:16:57;31.53;;;25.93;;
5961;SDS011;3007;50.770;0.250;2024-03-06T09:19:24;30.23;;;24.40;;
5961;SDS011;3007;50.770;0.250;2024-03-06T09:21:50;31.77;;;25.37;;
5961;SDS011;3007;50.770;0.250;2024-03-06T09:24:18;30.63;;;23.63;;
5961;SDS011;3007;50.770;0.250;2024-03-06T09:26:47;33.63;;;25.43;;
5961;SDS011;3007;50.770;0.250;2024-03-06T09:29:14;32.30;;;24.60;;
5961;SDS011;3007;50.770;0.250;2024-03-06T09:37:49;33.23;;;24.83;;
5961;SDS011;3007;50.770;0.250;2024-03-06T09:40:19;36.77;;;24.90;;
5961;SDS011;3007;50.770;0.250;2024-03-06T09:42:48;33.63;;;25.23;;
5961;SDS011;3007;50.770;0.250;2024-03-06T09:45:15;34.00;;;25.77;;
5961;SDS011;3007;50.770;0.250;2024-03-06T09:47:42;38.77;;;27.63;;
5961;SDS011;3007;50.770;0.250;2024-03-06T09:50:09;33.30;;;25.37;;
5961;SDS011;3007;50.770;0.250;2024-03-06T09:52:37;33.57;;;25.57;;
5961;SDS011;3007;50.770;0.250;2024-03-06T09:55:10;32.80;;;25.43;;
5961;SDS011;3007;50.770;0.250;2024-03-06T09:57:37;33.23;;;24.07;;
5961;SDS011;3007;50.770;0.250;2024-03-06T10:00:05;33.77;;;25.23;;
5961;SDS011;3007;50.770;0.250;2024-03-06T10:02:34;35.67;;;26.43;;
5961;SDS011;3007;50.770;0.250;2024-03-06T10:05:04;33.40;;;25.17;;
5961;SDS011;3007;50.770;0.250;2024-03-06T10:07:31;31.00;;;23.47;;
5961;SDS011;3007;50.770;0.250;2024-03-06T10:09:58;34.37;;;25.50;;
5961;SDS011;3007;50.770;0.250;2024-03-06T10:12:27;30.53;;;25.00;;
5961;SDS011;3007;50.770;0.250;2024-03-06T10:14:55;31.47;;;23.23;;
5961;SDS011;3007;50.770;0.250;2024-03-06T10:17:22;31.17;;;23.77;;
5961;SDS011;3007;50.770;0.250;2024-03-06T10:19:49;31.20;;;23.27;;
5961;SDS011;3007;50.770;0.250;2024-03-06T10:22:19;30.57;;;21.77;;
5961;SDS011;3007;50.770;0.250;2024-03-06T10:24:49;27.47;;;19.13;;
5961;SDS011;3007;50.770;0.250;2024-03-06T10:27:17;22.03;;;18.93;;
5961;SDS011;3007;50.770;0.250;2024-03-06T10:29:45;24.43;;;17.80;;
5961;SDS011;3007;50.770;0.250;2024-03-06T10:32:15;21.60;;;18.23;;
5961;SDS011;3007;50.770;0.250;2024-03-06T10:34:44;22.93;;;18.17;;
5961;SDS011;3007;50.770;0.250;2024-03-06T10:37:11;19.73;;;16.90;;
5961;SDS011;3007;50.770;0.250;2024-03-06T10:39:42;24.33;;;18.70;;
5961;SDS011;3007;50.770;0.250;2024-03-06T10:42:09;21.60;;;17.13;;
5961;SDS011;3007;50.770;0.250;2024-03-06T10:44:40;19.43;;;15.77;;
5961;SDS011;3007;50.770;0.250;2024-03-06T10:47:19;18.83;;;16.00;;
5961;SDS011;3007;50.770;0.250;2024-03-06T10:49:46;21.00;;;15.53;;
5961;SDS011;3007;50.770;0.250;2024-03-06T10:52:13;20.63;;;16.00;;
5961;SDS011;3007;50.770;0.250;2024-03-06T10:54:41;18.63;;;15.03;;
5961;SDS011;3007;50.770;0.250;2024-03-06T10:57:11;18.03;;;15.23;;
5961;SDS011;3007;50.770;0.250;2024-03-06T10:59:38;18.73;;;14.93;;
5961;SDS011;3007;50.770;0.250;2024-03-06T11:02:07;15.17;;;13.27;;
5961;SDS011;3007;50.770;0.250;2024-03-06T11:04:39;16.80;;;13.57;;
5961;SDS011;3007;50.770;0.250;2024-03-06T11:07:06;21.63;;;14.47;;
5961;SDS011;3007;50.770;0.250;2024-03-06T11:09:34;19.77;;;15.00;;
5961;SDS011;3007;50.770;0.250;2024-03-06T11:12:03;16.90;;;14.63;;
5961;SDS011;3007;50.770;0.250;2024-03-06T11:14:32;18.40;;;15.30;;
5961;SDS011;3007;50.770;0.250;2024-03-06T11:17:02;16.83;;;13.87;;
5961;SDS011;3007;50.770;0.250;2024-03-06T11:19:30;16.73;;;13.67;;
5961;SDS011;3007;50.770;0.250;2024-03-06T11:21:58;16.37;;;12.67;;
5961;SDS011;3007;50.770;0.250;2024-03-06T11:24:31;14.60;;;12.07;;
5961;SDS011;3007;50.770;0.250;2024-03-06T11:26:59;12.70;;;11.30;;
5961;SDS011;3007;50.770;0.250;2024-03-06T11:29:27;13.20;;;10.83;;
5961;SDS011;3007;50.770;0.250;2024-03-06T11:31:59;15.45;;;13.55;;
5961;SDS011;3007;50.770;0.250;2024-03-06T11:34:27;12.50;;;10.73;;
5961;SDS011;3007;50.770;0.250;2024-03-06T11:36:56;13.83;;;10.97;;
5961;SDS011;3007;50.770;0.250;2024-03-06T11:39:27;13.90;;;10.43;;
5961;SDS011;3007;50.770;0.250;2024-03-06T11:41:55;14.60;;;11.00;;
5961;SDS011;3007;50.770;0.250;2024-03-06T11:44:22;16.23;;;12.00;;
5961;SDS011;3007;50.770;0.250;2024-03-06T11:46:50;13.00;;;10.50;;
5961;SDS011;3007;50.770;0.250;2024-03-06T11:49:24;13.47;;;10.93;;
5961;SDS011;3007;50.770;0.250;2024-03-06T11:51:54;11.67;;;10.17;;
5961;SDS011;3007;50.770;0.250;2024-03-06T11:54:22;13.87;;;11.40;;
5961;SDS011;3007;50.770;0.250;2024-03-06T11:56:51;11.07;;;9.20;;
5961;SDS011;3007;50.770;0.250;2024-03-06T11:59:20;14.97;;;11.73;;
5961;SDS011;3007;50.770;0.250;2024-03-06T12:01:48;16.73;;;12.37;;
5961;SDS011;3007;50.770;0.250;2024-03-06T12:04:15;13.63;;;11.77;;
5961;SDS011;3007;50.770;0.250;2024-03-06T12:06:42;15.33;;;12.07;;
5961;SDS011;3007;50.770;0.250;2024-03-06T12:09:08;15.17;;;12.47;;
5961;SDS011;3007;50.770;0.250;2024-03-06T12:11:39;14.43;;;12.07;;
5961;SDS011;3007;50.770;0.250;2024-03-06T12:14:08;12.60;;;10.87;;
5961;SDS011;3007;50.770;0.250;2024-03-06T12:16:39;12.23;;;10.40;;
5961;SDS011;3007;50.770;0.250;2024-03-06T12:19:07;11.53;;;9.27;;
5961;SDS011;3007;50.770;0.250;2024-03-06T12:21:34;10.07;;;8.97;;
5961;SDS011;3007;50.770;0.250;2024-03-06T12:24:03;12.10;;;9.90;;
5961;SDS011;3007;50.770;0.250;2024-03-06T12:26:30;14.27;;;11.87;;
5961;SDS011;3007;50.770;0.250;2024-03-06T12:29:05;11.80;;;10.60;;
5961;SDS011;3007;50.770;0.250;2024-03-06T12:31:34;11.63;;;10.40;;
5961;SDS011;3007;50.770;0.250;2024-03-06T12:34:02;12.67;;;10.60;;
5961;SDS011;3007;50.770;0.250;2024-03-06T12:36:29;10.90;;;9.50;;
5961;SDS011;3007;50.770;0.250;2024-03-06T12:38:56;9.80;;;8.60;;
5961;SDS011;3007;50.770;0.250;2024-03-06T12:41:25;10.33;;;8.63;;
5961;SDS011;3007;50.770;0.250;2024-03-06T12:43:53;11.03;;;9.60;;
5961;SDS011;3007;50.770;0.250;2024-03-06T12:46:22;11.47;;;9.20;;
5961;SDS011;3007;50.770;0.250;2024-03-06T12:48:51;11.30;;;9.17;;
5961;SDS011;3007;50.770;0.250;2024-03-06T12:51:18;9.70;;;8.70;;
5961;SDS011;3007;50.770;0.250;2024-03-06T12:53:45;9.63;;;8.73;;
5961;SDS011;3007;50.770;0.250;2024-03-06T12:56:13;9.23;;;8.27;;
5961;SDS011;3007;50.770;0.250;2024-03-06T12:58:39;8.57;;;7.63;;
5961;SDS011;3007;50.770;0.250;2024-03-06T13:01:06;10.03;;;7.60;;
5961;SDS011;3007;50.770;0.250;2024-03-06T13:03:34;8.93;;;7.97;;
5961;SDS011;3007;50.770;0.250;2024-03-06T13:06:01;9.73;;;8.70;;
5961;SDS011;3007;50.770;0.250;2024-03-06T13:08:29;9.47;;;8.10;;
5961;SDS011;3007;50.770;0.250;2024-03-06T13:10:55;12.10;;;10.47;;
5961;SDS011;3007;50.770;0.250;2024-03-06T13:13:22;11.93;;;10.73;;
5961;SDS011;3007;50.770;0.250;2024-03-06T13:15:49;11.87;;;9.17;;
5961;SDS011;3007;50.770;0.250;2024-03-06T13:18:16;12.37;;;9.90;;
5961;SDS011;3007;50.770;0.250;2024-03-06T13:20:45;11.07;;;9.53;;
5961;SDS011;3007;50.770;0.250;2024-03-06T13:23:12;11.83;;;9.30;;
5961;SDS011;3007;50.770;0.250;2024-03-06T13:25:38;8.37;;;7.43;;
5961;SDS011;3007;50.770;0.250;2024-03-06T13:28:06;9.23;;;8.27;;
5961;SDS011;3007;50.770;0.250;2024-03-06T13:30:33;11.73;;;8.73;;
5961;SDS011;3007;50.770;0.250;2024-03-06T13:33:00;9.30;;;7.83;;
5961;SDS011;3007;50.770;0.250;2024-03-06T13:35:27;9.43;;;8.20;;
5961;SDS011;3007;50.770;0.250;2024-03-06T13:37:55;10.37;;;8.63;;
5961;SDS011;3007;50.770;0.250;2024-03-06T13:40:22;12.83;;;9.70;;
5961;SDS011;3007;50.770;0.250;2024-03-06T13:42:51;10.20;;;9.20;;
5961;SDS011;3007;50.770;0.250;2024-03-06T13:45:17;12.07;;;9.50;;
5961;SDS011;3007;50.770;0.250;2024-03-06T13:47:44;9.47;;;8.47;;
5961;SDS011;3007;50.770;0.250;2024-03-06T13:50:12;10.40;;;9.27;;
5961;SDS011;3007;50.770;0.250;2024-03-06T13:52:41;12.30;;;10.20;;
5961;SDS011;3007;50.770;0.250;2024-03-06T13:55:09;10.40;;;9.27;;
5961;SDS011;3007;50.770;0.250;2024-03-06T13:57:37;11.37;;;9.27;;
5961;SDS011;3007;50.770;0.250;2024-03-06T14:00:05;10.97;;;9.20;;
5961;SDS011;3007;50.770;0.250;2024-03-06T14:02:37;12.70;;;9.90;;
5961;SDS011;3007;50.770;0.250;2024-03-06T14:05:04;10.87;;;9.67;;
5961;SDS011;3007;50.770;0.250;2024-03-06T14:07:31;11.40;;;9.43;;
5961;SDS011;3007;50.770;0.250;2024-03-06T14:09:59;13.33;;;9.93;;
5961;SDS011;3007;50.770;0.250;2024-03-06T14:12:27;12.50;;;10.43;;
5961;SDS011;3007;50.770;0.250;2024-03-06T14:14:55;12.77;;;10.73;;
5961;SDS011;3007;50.770;0.250;2024-03-06T14:17:22;11.57;;;9.83;;
5961;SDS011;3007;50.770;0.250;2024-03-06T14:19:49;12.47;;;10.43;;
5961;SDS011;3007;50.770;0.250;2024-03-06T14:22:15;11.47;;;10.03;;
5961;SDS011;3007;50.770;0.250;2024-03-06T14:24:42;11.97;;;9.93;;
5961;SDS011;3007;50.770;0.250;2024-03-06T14:27:10;14.07;;;10.87;;
5961;SDS011;3007;50.770;0.250;2024-03-06T14:29:38;14.73;;;10.70;;
5961;SDS011;3007;50.770;0.250;2024-03-06T14:32:05;11.93;;;10.57;;
5961;SDS011;3007;50.770;0.250;2024-03-06T14:34:33;12.37;;;9.50;;
5961;SDS011;3007;50.770;0.250;2024-03-06T14:37:00;10.70;;;9.50;;
5961;SDS011;3007;50.770;0.250;2024-03-06T14:39:27;12.20;;;9.90;;
5961;SDS011;3007;50.770;0.250;2024-03-06T14:41:54;11.20;;;9.50;;
5961;SDS011;3007;50.770;0.250;2024-03-06T14:44:21;10.43;;;8.83;;
5961;SDS011;3007;50.770;0.250;2024-03-06T14:46:49;9.60;;;7.80;;
5961;SDS011;3007;50.770;0.250;2024-03-06T14:49:16;8.53;;;7.63;;
5961;SDS011;3007;50.770;0.250;2024-03-06T14:51:43;8.87;;;7.97;;
5961;SDS011;3007;50.770;0.250;2024-03-06T14:54:10;8.23;;;7.03;;
5961;SDS011;3007;50.770;0.250;2024-03-06T14:56:36;8.43;;;7.53;;
5961;SDS011;3007;50.770;0.250;2024-03-06T14:59:03;9.20;;;6.57;;